sensor_id;sensor_type;location;lat;lon;timestamp;pressure;altitude;pressure_sealevel;temperature;humidity
30724;BME280;17473;52.286;20.930;2023-03-22T00:01:22;100283.06;;;5.45;93.98
30724;BME280;17473;52.286;20.930;2023-03-22T00:03:50;100281.91;;;5.40;94.40
30724;BME280;17473;52.286;20.930;2023-03-22T00:06:18;100274.97;;;5.41;94.73
30724;BME280;17473;52.286;20.930;2023-03-22T00:08:49;100270.59;;;5.41;94.48
30724;BME280;17473;52.286;20.930;2023-03-22T00:11:19;100270.53;;;5.40;94.82
30724;BME280;17473;52.286;20.930;2023-03-22T00:13:46;100258.81;;;5.33;94.97
30724;BME280;17473;52.286;20.930;2023-03-22T00:16:14;100268.25;;;5.29;94.93
30724;BME280;17473;52.286;20.930;2023-03-22T00:18:41;100255.47;;;5.36;94.40
30724;BME280;17473;52.286;20.930;2023-03-22T00:21:14;100261.63;;;5.36;94.80
30724;BME280;17473;52.286;20.930;2023-03-22T00:23:43;100255.56;;;5.37;94.50
30724;BME280;17473;52.286;20.930;2023-03-22T00:26:11;100255.31;;;5.32;94.74
30724;BME280;17473;52.286;20.930;2023-03-22T00:28:38;100257.44;;;5.23;95.65
30724;BME280;17473;52.286;20.930;2023-03-22T00:31:06;100256.72;;;5.26;95.50
30724;BME280;17473;52.286;20.930;2023-03-22T00:33:34;100252.84;;;5.19;95.94
30724;BME280;17473;52.286;20.930;2023-03-22T00:36:08;100252.03;;;5.20;95.56
30724;BME280;17473;52.286;20.930;2023-03-22T00:38:36;100255.72;;;5.24;95.35
30724;BME280;17473;52.286;20.930;2023-03-22T00:41:18;100252.63;;;5.14;95.74
30724;BME280;17473;52.286;20.930;2023-03-22T00:43:47;100254.84;;;5.23;95.63
30724;BME280;17473;52.286;20.930;2023-03-22T00:46:17;100253.84;;;5.21;95.62
30724;BME280;17473;52.286;20.930;2023-03-22T00:48:47;100254.25;;;5.12;96.46
30724;BME280;17473;52.286;20.930;2023-03-22T00:51:15;100248.38;;;5.16;95.96
30724;BME280;17473;52.286;20.930;2023-03-22T00:53:43;100245.81;;;5.18;95.81
30724;BME280;17473;52.286;20.930;2023-03-22T00:56:13;100241.50;;;5.19;95.59
30724;BME280;17473;52.286;20.930;2023-03-22T00:58:42;100236.16;;;5.17;95.62
30724;BME280;17473;52.286;20.930;2023-03-22T01:01:10;100226.69;;;5.19;95.35
30724;BME280;17473;52.286;20.930;2023-03-22T01:03:41;100229.22;;;5.17;95.11
30724;BME280;17473;52.286;20.930;2023-03-22T01:06:10;100228.63;;;5.07;95.55
30724;BME280;17473;52.286;20.930;2023-03-22T01:08:37;100225.56;;;4.97;96.18
30724;BME280;17473;52.286;20.930;2023-03-22T01:11:06;100224.00;;;5.01;96.32
30724;BME280;17473;52.286;20.930;2023-03-22T01:13:35;100226.13;;;4.92;96.47
30724;BME280;17473;52.286;20.930;2023-03-22T01:16:08;100227.00;;;4.92;96.57
30724;BME280;17473;52.286;20.930;2023-03-22T01:18:36;100226.94;;;4.91;96.75
30724;BME280;17473;52.286;20.930;2023-03-22T01:21:03;100223.25;;;4.87;96.80
30724;BME280;17473;52.286;20.930;2023-03-22T01:23:31;100226.13;;;4.92;96.77
30724;BME280;17473;52.286;20.930;2023-03-22T01:25:58;100226.81;;;4.89;96.63
30724;BME280;17473;52.286;20.930;2023-03-22T01:28:26;100226.19;;;4.93;96.30
30724;BME280;17473;52.286;20.930;2023-03-22T01:30:54;100226.13;;;4.92;97.08
30724;BME280;17473;52.286;20.930;2023-03-22T01:33:21;100224.56;;;4.95;96.69
30724;BME280;17473;52.286;20.930;2023-03-22T01:35:49;100218.84;;;4.86;97.40
30724;BME280;17473;52.286;20.930;2023-03-22T01:38:16;100221.28;;;4.83;97.82
30724;BME280;17473;52.286;20.930;2023-03-22T01:40:43;100219.22;;;4.77;98.19
30724;BME280;17473;52.286;20.930;2023-03-22T01:43:15;100209.19;;;4.85;97.69
30724;BME280;17473;52.286;20.930;2023-03-22T01:45:47;100206.38;;;4.82;97.97
30724;BME280;17473;52.286;20.930;2023-03-22T01:48:30;100211.38;;;4.77;98.47
30724;BME280;17473;52.286;20.930;2023-03-22T01:51:13;100205.16;;;4.75;98.76
30724;BME280;17473;52.286;20.930;2023-03-22T01:53:47;100204.00;;;4.70;99.07
30724;BME280;17473;52.286;20.930;2023-03-22T01:56:22;100198.41;;;4.79;98.93
30724;BME280;17473;52.286;20.930;2023-03-22T01:58:52;100198.22;;;4.76;99.05
30724;BME280;17473;52.286;20.930;2023-03-22T02:01:20;100194.88;;;4.78;98.69
30724;BME280;17473;52.286;20.930;2023-03-22T02:04:07;100191.44;;;4.79;98.52
30724;BME280;17473;52.286;20.930;2023-03-22T02:06:37;100193.78;;;4.75;98.29
30724;BME280;17473;52.286;20.930;2023-03-22T02:09:07;100189.44;;;4.75;98.43
30724;BME280;17473;52.286;20.930;2023-03-22T02:11:39;100187.50;;;4.71;99.26
30724;BME280;17473;52.286;20.930;2023-03-22T02:14:24;100195.59;;;4.76;99.33
30724;BME280;17473;52.286;20.930;2023-03-22T02:23:18;100181.28;;;4.69;100.00
30724;BME280;17473;52.286;20.930;2023-03-22T02:29:15;100178.34;;;4.79;100.00
30724;BME280;17473;52.286;20.930;2023-03-22T02:35:37;100175.25;;;4.86;100.00
30724;BME280;17473;52.286;20.930;2023-03-22T02:41:54;100170.59;;;4.97;100.00
30724;BME280;17473;52.286;20.930;2023-03-22T02:50:27;100168.56;;;4.92;100.00
30724;BME280;17473;52.286;20.930;2023-03-22T02:55:25;100161.41;;;4.73;100.00
30724;BME280;17473;52.286;20.930;2023-03-22T02:58:10;100158.22;;;4.78;100.00
30724;BME280;17473;52.286;20.930;2023-03-22T03:00:39;100154.06;;;4.82;100.00
30724;BME280;17473;52.286;20.930;2023-03-22T03:03:11;100149.50;;;4.78;100.00
30724;BME280;17473;52.286;20.930;2023-03-22T03:05:48;100150.00;;;4.70;100.00
30724;BME280;17473;52.286;20.930;2023-03-22T03:08:19;100146.63;;;4.73;100.00
30724;BME280;17473;52.286;20.930;2023-03-22T03:10:48;100143.44;;;4.62;100.00
30724;BME280;17473;52.286;20.930;2023-03-22T03:13:17;100143.53;;;4.64;100.00
30724;BME280;17473;52.286;20.930;2023-03-22T03:15:56;100153.88;;;4.62;100.00
30724;BME280;17473;52.286;20.930;2023-03-22T03:24:32;100143.78;;;4.68;100.00
30724;BME280;17473;52.286;20.930;2023-03-22T03:27:29;100147.13;;;4.66;100.00
30724;BME280;17473;52.286;20.930;2023-03-22T03:32:48;100146.53;;;4.72;100.00
30724;BME280;17473;52.286;20.930;2023-03-22T03:35:27;100145.66;;;4.71;100.00
30724;BME280;17473;52.286;20.930;2023-03-22T03:38:15;100147.69;;;4.60;100.00
30724;BME280;17473;52.286;20.930;2023-03-22T03:40:54;100144.91;;;4.74;100.00
30724;BME280;17473;52.286;20.930;2023-03-22T03:43:24;100142.16;;;4.70;100.00
30724;BME280;17473;52.286;20.930;2023-03-22T03:45:54;100135.69;;;4.64;100.00
30724;BME280;17473;52.286;20.930;2023-03-22T03:48:27;100133.22;;;4.67;100.00
30724;BME280;17473;52.286;20.930;2023-03-22T03:50:56;100137.47;;;4.65;100.00
30724;BME280;17473;52.286;20.930;2023-03-22T03:53:24;100141.78;;;4.64;100.00
30724;BME280;17473;52.286;20.930;2023-03-22T03:55:51;100139.59;;;4.56;100.00
30724;BME280;17473;52.286;20.930;2023-03-22T03:58:18;100137.38;;;4.63;100.00
30724;BME280;17473;52.286;20.930;2023-03-22T04:00:49;100134.63;;;4.60;100.00
30724;BME280;17473;52.286;20.930;2023-03-22T04:03:16;100139.69;;;4.57;100.00
30724;BME280;17473;52.286;20.930;2023-03-22T04:05:43;100140.72;;;4.61;100.00
30724;BME280;17473;52.286;20.930;2023-03-22T04:08:11;100142.28;;;4.57;100.00
30724;BME280;17473;52.286;20.930;2023-03-22T04:10:38;100148.91;;;4.50;100.00
30724;BME280;17473;52.286;20.930;2023-03-22T04:13:05;100144.66;;;4.52;100.00
30724;BME280;17473;52.286;20.930;2023-03-22T04:15:32;100147.84;;;4.47;100.00
30724;BME280;17473;52.286;20.930;2023-03-22T04:18:00;100135.94;;;4.52;100.00
30724;BME280;17473;52.286;20.930;2023-03-22T04:20:27;100141.66;;;4.61;100.00
30724;BME280;17473;52.286;20.930;2023-03-22T04:22:55;100131.41;;;4.49;100.00
30724;BME280;17473;52.286;20.930;2023-03-22T04:25:23;100137.56;;;4.50;100.00
30724;BME280;17473;52.286;20.930;2023-03-22T04:27:56;100139.00;;;4.45;100.00
30724;BME280;17473;52.286;20.930;2023-03-22T04:30:23;100129.72;;;4.50;100.00
30724;BME280;17473;52.286;20.930;2023-03-22T04:32:53;100143.59;;;4.49;100.00
30724;BME280;17473;52.286;20.930;2023-03-22T04:35:21;100141.06;;;4.50;100.00
30724;BME280;17473;52.286;20.930;2023-03-22T04:37:48;100136.06;;;4.55;100.00
30724;BME280;17473;52.286;20.930;2023-03-22T04:40:15;100139.84;;;4.60;100.00
30724;BME280;17473;52.286;20.930;2023-03-22T04:42:43;100138.19;;;4.62;100.00
30724;BME280;17473;52.286;20.930;2023-03-22T04:45:12;100138.69;;;4.55;100.00
30724;BME280;17473;52.286;20.930;2023-03-22T04:47:40;100134.88;;;4.65;100.00
30724;BME280;17473;52.286;20.930;2023-03-22T04:50:08;100139.84;;;4.60;100.00
30724;BME280;17473;52.286;20.930;2023-03-22T04:52:35;100140.91;;;4.80;100.00
30724;BME280;17473;52.286;20.930;2023-03-22T04:55:02;100139.59;;;4.72;100.00
30724;BME280;17473;52.286;20.930;2023-03-22T04:57:29;100138.78;;;4.73;100.00
30724;BME280;17473;52.286;20.930;2023-03-22T04:59:56;100139.19;;;4.81;100.00
30724;BME280;17473;52.286;20.930;2023-03-22T05:02:23;100150.06;;;4.89;100.00
30724;BME280;17473;52.286;20.930;2023-03-22T05:04:51;100142.50;;;5.46;100.00
30724;BME280;17473;52.286;20.930;2023-03-22T05:07:18;100146.53;;;6.66;93.79
30724;BME280;17473;52.286;20.930;2023-03-22T05:09:45;100139.59;;;7.48;87.55
30724;BME280;17473;52.286;20.930;2023-03-22T05:12:12;100148.00;;;7.81;84.44
30724;BME280;17473;52.286;20.930;2023-03-22T05:14:39;100144.19;;;8.87;79.69
30724;BME280;17473;52.286;20.930;2023-03-22T05:17:07;100153.19;;;9.68;74.07
30724;BME280;17473;52.286;20.930;2023-03-22T05:19:34;100153.63;;;10.65;69.77
30724;BME280;17473;52.286;20.930;2023-03-22T05:22:01;100153.63;;;11.62;65.22
30724;BME280;17473;52.286;20.930;2023-03-22T05:24:29;100150.47;;;12.48;61.20
30724;BME280;17473;52.286;20.930;2023-03-22T05:26:57;100148.78;;;13.90;56.23
30724;BME280;17473;52.286;20.930;2023-03-22T05:29:27;100137.09;;;14.37;54.18
30724;BME280;17473;52.286;20.930;2023-03-22T05:31:54;100138.38;;;14.04;53.43
30724;BME280;17473;52.286;20.930;2023-03-22T05:34:21;100141.19;;;14.13;52.94
30724;BME280;17473;52.286;20.930;2023-03-22T05:36:49;100148.97;;;14.64;51.13
30724;BME280;17473;52.286;20.930;2023-03-22T05:39:17;100144.03;;;15.73;48.27
30724;BME280;17473;52.286;20.930;2023-03-22T05:41:45;100149.34;;;15.75;47.50
30724;BME280;17473;52.286;20.930;2023-03-22T05:44:12;100140.66;;;15.91;46.26
30724;BME280;17473;52.286;20.930;2023-03-22T05:46:39;100140.25;;;16.68;44.40
30724;BME280;17473;52.286;20.930;2023-03-22T05:49:07;100130.78;;;17.90;41.92
30724;BME280;17473;52.286;20.930;2023-03-22T05:51:37;100139.72;;;17.79;41.39
30724;BME280;17473;52.286;20.930;2023-03-22T05:54:08;100138.69;;;17.18;41.97
30724;BME280;17473;52.286;20.930;2023-03-22T05:56:36;100134.25;;;17.14;42.10
30724;BME280;17473;52.286;20.930;2023-03-22T05:59:03;100142.28;;;17.20;41.42
30724;BME280;17473;52.286;20.930;2023-03-22T06:01:31;100145.59;;;16.71;42.82
30724;BME280;17473;52.286;20.930;2023-03-22T06:03:59;100140.63;;;18.02;40.68
30724;BME280;17473;52.286;20.930;2023-03-22T06:06:27;100140.34;;;19.05;38.46
30724;BME280;17473;52.286;20.930;2023-03-22T06:08:54;100137.53;;;20.44;35.71
30724;BME280;17473;52.286;20.930;2023-03-22T06:11:36;100145.19;;;19.91;36.21
30724;BME280;17473;52.286;20.930;2023-03-22T06:14:03;100133.41;;;20.09;35.92
30724;BME280;17473;52.286;20.930;2023-03-22T06:16:30;100141.94;;;19.45;36.68
30724;BME280;17473;52.286;20.930;2023-03-22T06:18:57;100142.63;;;19.72;36.19
30724;BME280;17473;52.286;20.930;2023-03-22T06:21:24;100151.53;;;19.73;36.14
30724;BME280;17473;52.286;20.930;2023-03-22T06:23:52;100135.38;;;20.80;34.98
30724;BME280;17473;52.286;20.930;2023-03-22T06:26:19;100137.75;;;21.03;34.30
30724;BME280;17473;52.286;20.930;2023-03-22T06:28:46;100142.72;;;19.60;35.66
30724;BME280;17473;52.286;20.930;2023-03-22T06:31:13;100138.03;;;20.83;34.21
30724;BME280;17473;52.286;20.930;2023-03-22T06:33:40;100133.47;;;18.11;38.20
30724;BME280;17473;52.286;20.930;2023-03-22T06:36:07;100139.84;;;16.02;42.58
30724;BME280;17473;52.286;20.930;2023-03-22T06:38:35;100135.06;;;14.19;46.92
30724;BME280;17473;52.286;20.930;2023-03-22T06:41:02;100140.25;;;13.57;48.64
30724;BME280;17473;52.286;20.930;2023-03-22T06:43:29;100139.63;;;13.25;50.42
30724;BME280;17473;52.286;20.930;2023-03-22T06:45:56;100136.84;;;12.73;52.40
30724;BME280;17473;52.286;20.930;2023-03-22T06:48:23;100135.97;;;12.32;53.33
30724;BME280;17473;52.286;20.930;2023-03-22T06:50:51;100127.72;;;11.83;54.64
30724;BME280;17473;52.286;20.930;2023-03-22T06:53:18;100130.72;;;11.61;56.21
30724;BME280;17473;52.286;20.930;2023-03-22T06:55:45;100126.28;;;11.59;56.88
30724;BME280;17473;52.286;20.930;2023-03-22T06:58:12;100123.16;;;13.92;50.79
30724;BME280;17473;52.286;20.930;2023-03-22T07:00:40;100130.22;;;13.91;50.01
30724;BME280;17473;52.286;20.930;2023-03-22T07:03:07;100123.28;;;13.02;52.53
30724;BME280;17473;52.286;20.930;2023-03-22T07:05:34;100123.16;;;12.52;54.22
30724;BME280;17473;52.286;20.930;2023-03-22T07:08:02;100119.81;;;11.85;56.46
30724;BME280;17473;52.286;20.930;2023-03-22T07:10:29;100122.56;;;11.53;57.92
30724;BME280;17473;52.286;20.930;2023-03-22T07:12:57;100115.94;;;11.03;59.96
30724;BME280;17473;52.286;20.930;2023-03-22T07:15:24;100117.94;;;10.49;62.17
30724;BME280;17473;52.286;20.930;2023-03-22T07:17:52;100116.22;;;10.50;63.11
30724;BME280;17473;52.286;20.930;2023-03-22T07:20:19;100113.19;;;10.67;63.27
30724;BME280;17473;52.286;20.930;2023-03-22T07:22:49;100114.13;;;10.69;63.38
30724;BME280;17473;52.286;20.930;2023-03-22T07:25:17;100109.44;;;11.56;61.17
30724;BME280;17473;52.286;20.930;2023-03-22T07:27:44;100097.19;;;12.34;58.56
30724;BME280;17473;52.286;20.930;2023-03-22T07:30:12;100099.25;;;11.73;59.94
30724;BME280;17473;52.286;20.930;2023-03-22T07:32:39;100095.66;;;12.06;59.21
30724;BME280;17473;52.286;20.930;2023-03-22T07:35:07;100094.59;;;13.75;54.44
30724;BME280;17473;52.286;20.930;2023-03-22T07:37:35;100108.34;;;13.53;53.95
30724;BME280;17473;52.286;20.930;2023-03-22T07:40:02;100106.72;;;13.13;55.18
30724;BME280;17473;52.286;20.930;2023-03-22T07:42:30;100105.22;;;13.26;55.70
30724;BME280;17473;52.286;20.930;2023-03-22T07:44:57;100110.91;;;13.48;55.28
30724;BME280;17473;52.286;20.930;2023-03-22T07:47:25;100087.44;;;14.30;52.78
30724;BME280;17473;52.286;20.930;2023-03-22T07:50:07;100098.53;;;14.65;51.75
30724;BME280;17473;52.286;20.930;2023-03-22T07:52:41;100096.59;;;15.27;50.43
30724;BME280;17473;52.286;20.930;2023-03-22T07:55:10;100095.31;;;15.82;49.27
30724;BME280;17473;52.286;20.930;2023-03-22T07:57:38;100089.41;;;15.17;50.26
30724;BME280;17473;52.286;20.930;2023-03-22T08:00:07;100087.25;;;14.85;51.20
30724;BME280;17473;52.286;20.930;2023-03-22T08:02:36;100080.47;;;16.15;48.31
30724;BME280;17473;52.286;20.930;2023-03-22T08:05:05;100070.28;;;17.55;45.99
30724;BME280;17473;52.286;20.930;2023-03-22T08:07:33;100067.50;;;18.35;43.43
30724;BME280;17473;52.286;20.930;2023-03-22T08:10:00;100072.88;;;18.37;43.33
30724;BME280;17473;52.286;20.930;2023-03-22T08:12:27;100072.91;;;18.07;43.83
30724;BME280;17473;52.286;20.930;2023-03-22T08:14:54;100072.97;;;17.79;44.80
30724;BME280;17473;52.286;20.930;2023-03-22T08:17:22;100071.16;;;17.71;44.93
30724;BME280;17473;52.286;20.930;2023-03-22T08:19:49;100073.81;;;17.53;45.25
30724;BME280;17473;52.286;20.930;2023-03-22T08:22:16;100077.34;;;17.23;46.08
30724;BME280;17473;52.286;20.930;2023-03-22T08:24:43;100072.56;;;16.31;48.34
30724;BME280;17473;52.286;20.930;2023-03-22T08:27:10;100080.72;;;16.63;47.77
30724;BME280;17473;52.286;20.930;2023-03-22T08:29:38;100075.03;;;15.98;49.02
30724;BME280;17473;52.286;20.930;2023-03-22T08:32:05;100058.16;;;16.01;49.75
30724;BME280;17473;52.286;20.930;2023-03-22T08:34:40;100066.69;;;15.55;50.73
30724;BME280;17473;52.286;20.930;2023-03-22T08:37:10;100056.38;;;14.95;52.27
30724;BME280;17473;52.286;20.930;2023-03-22T08:39:38;100066.38;;;14.44;54.31
30724;BME280;17473;52.286;20.930;2023-03-22T08:42:05;100061.88;;;14.39;54.81
30724;BME280;17473;52.286;20.930;2023-03-22T08:44:32;100055.03;;;13.94;56.31
30724;BME280;17473;52.286;20.930;2023-03-22T08:46:59;100052.31;;;13.86;56.80
30724;BME280;17473;52.286;20.930;2023-03-22T08:49:29;100066.19;;;13.19;59.62
30724;BME280;17473;52.286;20.930;2023-03-22T08:51:57;100062.84;;;13.29;59.33
30724;BME280;17473;52.286;20.930;2023-03-22T08:54:24;100070.13;;;13.40;59.54
30724;BME280;17473;52.286;20.930;2023-03-22T08:56:54;100071.75;;;13.85;58.66
30724;BME280;17473;52.286;20.930;2023-03-22T08:59:23;100064.50;;;13.75;58.99
30724;BME280;17473;52.286;20.930;2023-03-22T09:01:50;100056.03;;;13.99;57.97
30724;BME280;17473;52.286;20.930;2023-03-22T09:04:17;100061.44;;;13.49;59.67
30724;BME280;17473;52.286;20.930;2023-03-22T09:06:44;100059.13;;;12.72;62.10
30724;BME280;17473;52.286;20.930;2023-03-22T09:09:13;100062.69;;;12.73;62.74
30724;BME280;17473;52.286;20.930;2023-03-22T09:11:40;100067.63;;;12.56;63.49
30724;BME280;17473;52.286;20.930;2023-03-22T09:14:09;100074.72;;;12.58;63.68
30724;BME280;17473;52.286;20.930;2023-03-22T09:16:36;100066.28;;;12.33;64.58
30724;BME280;17473;52.286;20.930;2023-03-22T09:19:03;100062.78;;;12.34;64.81
30724;BME280;17473;52.286;20.930;2023-03-22T09:21:30;100055.53;;;12.68;63.59
30724;BME280;17473;52.286;20.930;2023-03-22T09:23:58;100047.69;;;12.75;63.76
30724;BME280;17473;52.286;20.930;2023-03-22T09:26:25;100041.31;;;12.63;64.81
30724;BME280;17473;52.286;20.930;2023-03-22T09:28:53;100032.97;;;12.91;63.80
30724;BME280;17473;52.286;20.930;2023-03-22T09:31:20;100038.66;;;12.63;64.33
30724;BME280;17473;52.286;20.930;2023-03-22T09:33:47;100039.06;;;12.41;64.90
30724;BME280;17473;52.286;20.930;2023-03-22T09:36:15;100035.81;;;12.54;64.21
30724;BME280;17473;52.286;20.930;2023-03-22T09:38:42;100040.31;;;12.60;64.29
30724;BME280;17473;52.286;20.930;2023-03-22T09:41:32;100029.72;;;12.60;64.13
30724;BME280;17473;52.286;20.930;2023-03-22T09:44:07;100035.19;;;12.25;64.58
30724;BME280;17473;52.286;20.930;2023-03-22T09:46:45;100028.84;;;12.16;64.95
30724;BME280;17473;52.286;20.930;2023-03-22T09:49:20;100010.22;;;12.12;65.83
30724;BME280;17473;52.286;20.930;2023-03-22T09:51:50;100015.00;;;12.73;63.96
30724;BME280;17473;52.286;20.930;2023-03-22T09:54:37;100011.25;;;12.61;64.74
30724;BME280;17473;52.286;20.930;2023-03-22T10:05:34;100022.97;;;12.31;65.78
30724;BME280;17473;52.286;20.930;2023-03-22T10:08:23;100022.16;;;12.34;65.77
30724;BME280;17473;52.286;20.930;2023-03-22T10:10:53;100013.72;;;12.11;66.24
30724;BME280;17473;52.286;20.930;2023-03-22T10:13:38;100018.66;;;11.95;66.86
30724;BME280;17473;52.286;20.930;2023-03-22T10:16:14;100020.94;;;11.78;66.92
30724;BME280;17473;52.286;20.930;2023-03-22T10:18:50;100027.78;;;12.08;66.22
30724;BME280;17473;52.286;20.930;2023-03-22T10:21:18;100015.16;;;11.96;66.46
30724;BME280;17473;52.286;20.930;2023-03-22T10:24:12;100021.44;;;12.00;66.09
30724;BME280;17473;52.286;20.930;2023-03-22T10:26:45;100019.41;;;11.89;66.63
30724;BME280;17473;52.286;20.930;2023-03-22T10:32:12;100011.53;;;11.91;66.53
30724;BME280;17473;52.286;20.930;2023-03-22T10:34:39;100018.16;;;12.12;66.25
30724;BME280;17473;52.286;20.930;2023-03-22T10:37:13;100012.91;;;12.13;66.66
30724;BME280;17473;52.286;20.930;2023-03-22T10:39:50;100012.25;;;12.24;66.70
30724;BME280;17473;52.286;20.930;2023-03-22T10:42:25;100009.41;;;12.14;66.90
30724;BME280;17473;52.286;20.930;2023-03-22T10:45:11;100012.91;;;12.13;67.01
30724;BME280;17473;52.286;20.930;2023-03-22T10:47:58;100010.00;;;12.44;66.01
30724;BME280;17473;52.286;20.930;2023-03-22T10:50:40;100010.25;;;12.56;65.76
30724;BME280;17473;52.286;20.930;2023-03-22T10:53:44;100004.63;;;12.85;64.99
30724;BME280;17473;52.286;20.930;2023-03-22T10:56:18;100001.53;;;12.62;65.39
30724;BME280;17473;52.286;20.930;2023-03-22T10:58:48;99997.72;;;12.47;65.56
30724;BME280;17473;52.286;20.930;2023-03-22T11:01:33;99989.47;;;12.32;65.77
30724;BME280;17473;52.286;20.930;2023-03-22T11:06:31;99987.63;;;12.29;66.67
30724;BME280;17473;52.286;20.930;2023-03-22T11:09:16;99983.09;;;12.22;67.05
30724;BME280;17473;52.286;20.930;2023-03-22T11:11:52;99992.53;;;12.53;65.90
30724;BME280;17473;52.286;20.930;2023-03-22T11:14:35;99981.75;;;12.44;66.73
30724;BME280;17473;52.286;20.930;2023-03-22T11:17:07;99977.50;;;12.98;65.32
30724;BME280;17473;52.286;20.930;2023-03-22T11:19:39;99976.41;;;12.87;65.19
30724;BME280;17473;52.286;20.930;2023-03-22T11:22:23;99985.72;;;12.66;65.80
30724;BME280;17473;52.286;20.930;2023-03-22T11:24:52;99981.94;;;12.53;66.00
30724;BME280;17473;52.286;20.930;2023-03-22T11:27:30;99977.75;;;12.63;65.81
30724;BME280;17473;52.286;20.930;2023-03-22T11:30:22;99978.84;;;12.76;65.29
30724;BME280;17473;52.286;20.930;2023-03-22T11:33:18;99985.03;;;12.75;65.21
30724;BME280;17473;52.286;20.930;2023-03-22T11:35:53;99967.53;;;12.87;64.95
30724;BME280;17473;52.286;20.930;2023-03-22T11:38:42;99976.84;;;12.64;65.48
30724;BME280;17473;52.286;20.930;2023-03-22T11:41:33;99972.53;;;12.70;65.49
30724;BME280;17473;52.286;20.930;2023-03-22T11:44:04;99963.44;;;12.55;65.66
30724;BME280;17473;52.286;20.930;2023-03-22T11:46:34;99961.00;;;12.66;65.31
30724;BME280;17473;52.286;20.930;2023-03-22T11:49:08;99946.16;;;12.74;64.99
30724;BME280;17473;52.286;20.930;2023-03-22T11:51:41;99941.50;;;13.13;63.82
30724;BME280;17473;52.286;20.930;2023-03-22T11:54:32;99947.41;;;12.96;64.56
30724;BME280;17473;52.286;20.930;2023-03-22T11:57:30;99938.47;;;12.90;64.87
30724;BME280;17473;52.286;20.930;2023-03-22T12:00:22;99935.94;;;12.97;64.41
30724;BME280;17473;52.286;20.930;2023-03-22T12:03:15;99933.47;;;13.10;64.52
30724;BME280;17473;52.286;20.930;2023-03-22T12:05:47;99929.19;;;13.17;64.19
30724;BME280;17473;52.286;20.930;2023-03-22T12:11:10;99923.72;;;13.07;64.31
30724;BME280;17473;52.286;20.930;2023-03-22T12:13:52;99911.63;;;13.25;63.20
30724;BME280;17473;52.286;20.930;2023-03-22T12:16:27;99918.34;;;13.01;63.73
30724;BME280;17473;52.286;20.930;2023-03-22T12:19:33;99909.38;;;12.94;64.02
30724;BME280;17473;52.286;20.930;2023-03-22T12:22:19;99914.75;;;12.97;64.36
30724;BME280;17473;52.286;20.930;2023-03-22T12:24:48;99910.81;;;13.29;63.71
30724;BME280;17473;52.286;20.930;2023-03-22T12:32:47;99891.41;;;13.31;62.91
30724;BME280;17473;52.286;20.930;2023-03-22T12:35:21;99893.25;;;14.00;60.94
30724;BME280;17473;52.286;20.930;2023-03-22T12:37:55;99896.22;;;14.30;60.61
30724;BME280;17473;52.286;20.930;2023-03-22T12:40:37;99889.84;;;14.12;60.82
30724;BME280;17473;52.286;20.930;2023-03-22T12:45:58;99890.66;;;14.08;59.59
30724;BME280;17473;52.286;20.930;2023-03-22T12:48:40;99886.31;;;14.13;59.53
30724;BME280;17473;52.286;20.930;2023-03-22T12:51:13;99888.38;;;14.39;58.67
30724;BME280;17473;52.286;20.930;2023-03-22T12:53:49;99891.72;;;14.22;59.32
30724;BME280;17473;52.286;20.930;2023-03-22T12:56:24;99878.88;;;14.64;58.17
30724;BME280;17473;52.286;20.930;2023-03-22T12:58:57;99879.38;;;14.24;58.66
30724;BME280;17473;52.286;20.930;2023-03-22T13:01:34;99883.00;;;14.33;58.50
30724;BME280;17473;52.286;20.930;2023-03-22T13:04:32;99876.97;;;14.49;58.24
30724;BME280;17473;52.286;20.930;2023-03-22T13:26:49;99854.72;;;14.39;59.51
30724;BME280;17473;52.286;20.930;2023-03-22T13:29:33;99861.66;;;14.27;59.78
30724;BME280;17473;52.286;20.930;2023-03-22T13:32:28;99860.78;;;14.24;60.25
30724;BME280;17473;52.286;20.930;2023-03-22T13:34:56;99859.81;;;14.16;60.50
30724;BME280;17473;52.286;20.930;2023-03-22T13:37:34;99859.16;;;14.40;59.99
30724;BME280;17473;52.286;20.930;2023-03-22T13:43:32;99856.41;;;14.30;60.29
30724;BME280;17473;52.286;20.930;2023-03-22T13:56:56;99839.84;;;14.59;59.31
30724;BME280;17473;52.286;20.930;2023-03-22T14:02:26;99843.78;;;14.08;61.05
30724;BME280;17473;52.286;20.930;2023-03-22T14:05:06;99846.47;;;14.10;61.32
30724;BME280;17473;52.286;20.930;2023-03-22T14:07:50;99841.19;;;14.12;61.56
30724;BME280;17473;52.286;20.930;2023-03-22T14:15:36;99848.94;;;13.95;62.53
30724;BME280;17473;52.286;20.930;2023-03-22T14:18:40;99843.47;;;13.81;62.91
30724;BME280;17473;52.286;20.930;2023-03-22T14:21:17;99838.19;;;13.82;62.91
30724;BME280;17473;52.286;20.930;2023-03-22T14:23:48;99830.19;;;13.79;63.02
30724;BME280;17473;52.286;20.930;2023-03-22T14:26:35;99833.94;;;13.98;62.49
30724;BME280;17473;52.286;20.930;2023-03-22T14:29:16;99830.25;;;13.84;62.85
30724;BME280;17473;52.286;20.930;2023-03-22T14:31:54;99822.34;;;13.88;63.04
30724;BME280;17473;52.286;20.930;2023-03-22T14:34:22;99826.81;;;13.94;62.82
30724;BME280;17473;52.286;20.930;2023-03-22T14:36:55;99815.47;;;14.06;62.63
30724;BME280;17473;52.286;20.930;2023-03-22T14:39:32;99817.97;;;13.95;62.91
30724;BME280;17473;52.286;20.930;2023-03-22T14:42:04;99811.69;;;13.87;62.98
30724;BME280;17473;52.286;20.930;2023-03-22T14:49:44;99809.81;;;13.76;64.08
30724;BME280;17473;52.286;20.930;2023-03-22T14:52:18;99805.34;;;13.72;64.41
30724;BME280;17473;52.286;20.930;2023-03-22T14:54:50;99802.75;;;13.75;64.30